Poland Spring, Maine
Current Conditions -  °F | °C
As of 2:15 AM on Monday 24 Nov 2014 (Local Time) from KLEW Reporting Station
Broken Clouds Broken Clouds  
Wind Chill: 32°   Ceiling: 200
Heat Index: 32°   Visibility: 7mi
Dew Point: 28°   Wind: 0mph
Humidity: 87%   Direction: NA
Pressure: 30.06"   Gusts: NA
Location:  44.0282°N, 70.3889°W
Report Text: KLEW 240715Z AUTO 00000KT 7SM BKN002 00/M02 A3006 RMK AO1
Loading
Personal Weather Stations






























Interactive Weather Map New forecast layout! Learn more

10-Day Weather Forecast

Advertisements
Track Severe Weather on mobile